Terminal Aerodrome Forecast
Issued by NWS

Home | Current Version | Previous Version | Text Only | Print | Product List | Glossary On
Versions: 1 2 3 4 5 6 7 8 9 10 11 12 13 14 15 16 17
000
FTUS45 KVEF 281120
TAFHND
TAF
KHND 281120Z 2812/2912 18005KT P6SM SKC
     FM281600 03005KT P6SM SKC
     FM282100 VRB04KT P6SM SKC
     FM290400 18007KT P6SM SKC=

USA.gov is the U.S. government's official web portal to all federal, state and local government web resources and services.